Bergman, Arkansas
Current Conditions -  °F | °C
As of 7:46 AM on Friday 19 Dec 2014 (Local Time) from KHRO Reporting Station
Haze Haze  
Wind Chill: 36°   Ceiling: 200
Heat Index: 36°   Visibility: 1.2mi
Dew Point: 36°   Wind: 3mph
Humidity: 100%   Direction: 100°E
Pressure: 30.23"   Gusts: NA
Location:  36.32°N, 93.01°W
Report Text: KHRO 191346Z AUTO 10003KT 1 1/4SM BR OVC002 02/02 A3023 RMK AO2 T00220022
Loading
Personal Weather Stations






























Interactive Weather Map New forecast layout! Learn more

10-Day Weather Forecast

Advertisements
Track Severe Weather on mobile